Current Conditions
Partly Cloudy
Conditions



Pressure
30.09 (inHG) - 1018.92 (mb)
Visibility

9.9 (mimiles) - 16.0 (km)
   Temperature
61  °F
16°C
57  °F
Dewpoint
88  %
 Humidity
   Wind Speed
0  mph
0  kts
0  km/h
0  m/s
   Wind Direction
Calm
Due North
   Airport Data
KPDK
Location DeKalb Peachtree Airport 20 mi (32.18 km)
Metar :KPDK 230753Z AUTO 00000KT 10SM FEW095 16/14 A3009 RMK AO2 SLP181 T01560139
Wed 23rd September 03:53 am
   Raw Metar Info
Raw METAR is the most common format in the world for the transmission of observational weather data. It is highly standardized through the International Civil Aviation Organization (ICAO), which allows it to be understood throughout most of the world.
   API Info
Data Provided by
https://www.checkwx.com/weather/KPDK
   © Info
CSS/SVG/PHP scripts were developed by weather34.com for use in the weather34 template © 2015-2020

Guide Info provided by Metar-Wikipedia